createdAt,value
2023-01-22T00:00:01.775Z,7.37
2023-01-22T00:03:15.053Z,8.50
2023-01-22T00:06:26.795Z,7.20
2023-01-22T00:09:52.759Z,7.30
2023-01-22T00:12:52.840Z,6.43
2023-01-22T00:16:16.965Z,7.73
2023-01-22T00:19:31.824Z,6.10
2023-01-22T00:22:46.880Z,6.67
2023-01-22T00:26:03.866Z,7.15
2023-01-22T00:29:27.854Z,7.13
2023-01-22T00:32:27.927Z,6.73
2023-01-22T00:35:51.860Z,6.67
2023-01-22T00:38:51.924Z,6.35
2023-01-22T00:42:20.892Z,6.40
2023-01-22T00:45:32.999Z,7.43
2023-01-22T00:48:59.949Z,6.67
2023-01-22T00:51:59.936Z,7.13
2023-01-22T00:55:11.953Z,6.80
2023-01-22T00:58:25.976Z,6.70
2023-01-22T01:01:38.006Z,7.15
2023-01-22T01:04:37.926Z,6.65
2023-01-22T01:07:50.086Z,7.30
2023-01-22T01:10:52.003Z,6.73
2023-01-22T01:14:17.001Z,8.57
2023-01-22T01:17:29.010Z,6.50
2023-01-22T01:20:55.987Z,6.50
2023-01-22T01:24:08.070Z,6.60
2023-01-22T01:27:20.066Z,7.25
2023-01-22T01:30:35.084Z,6.93
2023-01-22T01:33:59.124Z,7.37
2023-01-22T01:36:59.054Z,7.73
2023-01-22T01:40:11.106Z,7.30
2023-01-22T01:43:11.148Z,7.17
2023-01-22T01:46:41.183Z,6.60
2023-01-22T01:49:53.051Z,7.10
2023-01-22T01:53:17.103Z,6.83
2023-01-22T01:56:41.134Z,7.15
2023-01-22T02:00:06.162Z,7.10
2023-01-22T02:03:32.252Z,6.40
2023-01-22T02:06:44.188Z,7.00
2023-01-22T02:09:57.168Z,6.43
2023-01-22T02:13:21.243Z,6.40
2023-01-22T02:16:46.175Z,6.95
2023-01-22T02:20:03.211Z,6.10
2023-01-22T02:23:30.202Z,6.43
2023-01-22T02:26:43.225Z,5.60
2023-01-22T02:29:58.271Z,6.60
2023-01-22T02:33:10.278Z,6.60
2023-01-22T02:36:23.227Z,5.60
2023-01-22T02:39:37.257Z,5.40
2023-01-22T02:42:50.315Z,5.55
2023-01-22T02:46:02.304Z,5.10
2023-01-22T02:49:26.243Z,5.53
2023-01-22T02:52:39.297Z,5.00
2023-01-22T02:56:06.374Z,4.53
2023-01-22T02:59:18.302Z,4.80
2023-01-22T03:02:30.410Z,4.90
2023-01-22T03:05:30.402Z,4.75
2023-01-22T03:08:42.407Z,4.73
2023-01-22T03:11:56.439Z,4.77
2023-01-22T03:15:14.115Z,4.60
2023-01-22T03:18:20.233Z,4.73
2023-01-22T03:21:44.389Z,4.33
2023-01-22T03:25:12.153Z,3.90
2023-01-22T03:28:39.438Z,4.77
2023-01-22T03:31:39.519Z,4.03
2023-01-22T03:35:03.458Z,4.23
2023-01-22T03:38:15.474Z,4.27
2023-01-22T03:41:39.444Z,4.00
2023-01-22T03:44:53.554Z,3.75
2023-01-22T03:48:18.430Z,3.93
2023-01-22T03:51:42.568Z,3.80
2023-01-22T03:54:55.498Z,3.50
2023-01-22T03:58:10.536Z,3.57
2023-01-22T04:01:37.536Z,4.20
2023-01-22T04:04:49.560Z,3.55
2023-01-22T04:07:52.517Z,3.55
2023-01-22T04:11:04.626Z,4.23
2023-01-22T04:14:16.522Z,4.43
2023-01-22T04:17:42.494Z,3.37
2023-01-22T04:21:06.554Z,3.70
2023-01-22T04:24:19.582Z,4.00
2023-01-22T04:27:32.680Z,4.05
2023-01-22T04:30:45.680Z,3.30
2023-01-22T04:34:11.584Z,3.67
2023-01-22T04:37:23.693Z,3.50
2023-01-22T04:40:35.618Z,3.57
2023-01-22T04:43:47.596Z,3.05
2023-01-22T04:46:59.600Z,3.90
2023-01-22T04:50:14.687Z,3.63
2023-01-22T04:53:26.655Z,3.70
2023-01-22T04:56:39.752Z,3.53
2023-01-22T04:59:39.665Z,3.20
2023-01-22T05:02:51.768Z,3.40
2023-01-22T05:06:17.680Z,3.27
2023-01-22T05:09:29.796Z,3.33
2023-01-22T05:12:29.769Z,2.97
2023-01-22T05:15:41.824Z,3.60
2023-01-22T05:18:53.720Z,4.10
2023-01-22T05:22:19.838Z,3.20
2023-01-22T05:25:37.783Z,2.90
2023-01-22T05:28:50.759Z,3.17
2023-01-22T05:32:02.843Z,2.63
2023-01-22T05:35:27.826Z,3.10
2023-01-22T05:38:53.822Z,2.73
2023-01-22T05:42:19.842Z,2.90
2023-01-22T05:45:31.851Z,3.55
2023-01-22T05:48:56.885Z,3.20
2023-01-22T05:51:56.905Z,3.10
2023-01-22T05:55:22.924Z,2.83
2023-01-22T05:58:22.880Z,3.10
2023-01-22T06:01:47.927Z,2.90
2023-01-22T06:04:59.912Z,2.97
2023-01-22T06:08:11.899Z,3.10
2023-01-22T06:11:38.868Z,2.90
2023-01-22T06:14:38.971Z,3.03
2023-01-22T06:17:50.935Z,2.43
2023-01-22T06:21:02.996Z,2.85
2023-01-22T06:24:14.986Z,2.80
2023-01-22T06:27:41.002Z,3.00
2023-01-22T06:30:52.993Z,3.13
2023-01-22T06:34:18.028Z,2.90
2023-01-22T06:37:30.047Z,2.40
2023-01-22T06:40:31.028Z,2.97
2023-01-22T06:43:57.049Z,2.90
2023-01-22T06:47:09.123Z,3.23
2023-01-22T06:50:22.002Z,3.10
2023-01-22T06:53:50.035Z,2.90
2023-01-22T06:57:03.022Z,2.97
2023-01-22T07:00:29.042Z,3.27
2023-01-22T07:03:42.125Z,2.65
2023-01-22T07:06:42.070Z,3.00
2023-01-22T07:09:55.062Z,3.27
2023-01-22T07:12:55.093Z,2.77
2023-01-22T07:16:21.122Z,2.90
2023-01-22T07:19:21.348Z,3.00
2023-01-22T07:22:33.087Z,2.93
2023-01-22T07:25:33.087Z,2.80
2023-01-22T07:28:45.203Z,2.95
2023-01-22T07:31:59.165Z,3.90
2023-01-22T07:35:11.325Z,3.57
2023-01-22T07:38:23.153Z,3.13
2023-01-22T07:41:35.198Z,3.33
2023-01-22T07:44:35.241Z,2.90
2023-01-22T07:48:01.249Z,3.10
2023-01-22T07:51:01.214Z,3.00
2023-01-22T07:54:13.208Z,3.20
2023-01-22T07:57:13.274Z,2.63
2023-01-22T08:00:38.268Z,2.90
2023-01-22T08:04:04.309Z,3.20
2023-01-22T08:07:16.240Z,2.90
2023-01-22T08:10:29.253Z,3.23
2023-01-22T08:13:29.309Z,2.70
2023-01-22T08:16:41.344Z,2.97
2023-01-22T08:19:55.349Z,3.10
2023-01-22T08:23:22.166Z,3.20
2023-01-22T08:26:21.364Z,2.95
2023-01-22T08:29:46.319Z,3.50
2023-01-22T08:32:58.386Z,2.97
2023-01-22T08:36:24.379Z,3.27
2023-01-22T08:39:36.348Z,3.70
2023-01-22T08:42:49.363Z,2.97
2023-01-22T08:45:49.495Z,3.27
2023-01-22T08:49:13.449Z,3.10
2023-01-22T08:52:27.397Z,3.30
2023-01-22T08:55:40.413Z,3.27
2023-01-22T08:58:40.408Z,3.67
2023-01-22T09:02:04.458Z,3.00
2023-01-22T09:05:04.489Z,3.05
2023-01-22T09:08:30.464Z,3.15
2023-01-22T09:11:30.436Z,3.60
2023-01-22T09:14:42.522Z,3.17
2023-01-22T09:17:42.530Z,2.90
2023-01-22T09:20:54.441Z,4.07
2023-01-22T09:24:07.571Z,4.00
2023-01-22T09:27:19.584Z,3.47
2023-01-22T09:30:35.545Z,3.13
2023-01-22T09:33:47.518Z,3.57
2023-01-22T09:36:47.528Z,3.33
2023-01-22T09:40:14.507Z,3.43
2023-01-22T09:43:27.582Z,3.60
2023-01-22T09:46:52.570Z,3.75
2023-01-22T09:50:04.592Z,3.37
2023-01-22T09:53:28.566Z,3.97
2023-01-22T09:56:43.573Z,3.70
2023-01-22T10:00:08.578Z,3.70
2023-01-22T10:03:34.655Z,4.07
2023-01-22T10:06:46.595Z,4.55
2023-01-22T10:10:10.712Z,4.00
2023-01-22T10:13:24.648Z,3.73
2023-01-22T10:16:48.695Z,4.10
2023-01-22T10:20:00.679Z,3.60
2023-01-22T10:23:25.745Z,3.97
2023-01-22T10:26:37.640Z,4.00
2023-01-22T10:30:02.716Z,3.70
2023-01-22T10:33:24.700Z,3.87
2023-01-22T10:36:36.707Z,3.57
2023-01-22T10:39:36.752Z,3.93
2023-01-22T10:42:49.955Z,4.27
2023-01-22T10:46:03.756Z,3.97
2023-01-22T10:49:28.735Z,4.60
2023-01-22T10:52:43.740Z,4.30
2023-01-22T10:55:55.778Z,3.93
2023-01-22T10:59:10.804Z,4.20
2023-01-22T11:02:40.861Z,3.95
2023-01-22T11:05:52.869Z,3.73
2023-01-22T11:09:16.859Z,5.37
2023-01-22T11:12:29.864Z,4.10
2023-01-22T11:15:55.264Z,4.10
2023-01-22T11:19:36.312Z,4.73
2023-01-22T11:22:49.942Z,4.60
2023-01-22T11:26:01.810Z,4.10
2023-01-22T11:29:26.903Z,4.87
2023-01-22T11:32:46.907Z,4.20
2023-01-22T11:36:12.961Z,4.60
2023-01-22T11:39:24.940Z,4.30
2023-01-22T11:42:51.892Z,4.40
2023-01-22T11:46:11.000Z,4.30
2023-01-22T11:49:36.915Z,4.70
2023-01-22T11:52:51.980Z,4.77
2023-01-22T11:56:18.958Z,4.83
2023-01-22T11:59:32.416Z,4.10
2023-01-22T12:03:00.118Z,4.63
2023-01-22T12:06:26.046Z,4.77
2023-01-22T12:09:39.991Z,4.97
2023-01-22T12:13:05.001Z,4.70
2023-01-22T12:16:18.200Z,3.77
2023-01-22T12:19:58.061Z,4.30
2023-01-22T12:23:10.009Z,4.40
2023-01-22T12:26:36.030Z,4.73
2023-01-22T12:29:48.014Z,4.20
2023-01-22T12:33:12.152Z,4.13
2023-01-22T12:36:25.125Z,4.80
2023-01-22T12:39:50.172Z,4.43
2023-01-22T12:43:04.134Z,4.83
2023-01-22T12:46:36.202Z,4.33
2023-01-22T12:49:48.116Z,4.23
2023-01-22T12:53:19.139Z,4.47
2023-01-22T12:56:31.171Z,4.80
2023-01-22T13:00:06.110Z,4.60
2023-01-22T13:03:06.219Z,4.70
2023-01-22T13:06:31.257Z,4.60
2023-01-22T13:09:47.195Z,4.40
2023-01-22T13:13:11.208Z,4.40
2023-01-22T13:16:25.324Z,4.50
2023-01-22T13:19:49.243Z,3.77
2023-01-22T13:23:01.249Z,4.27
2023-01-22T13:26:13.242Z,4.37
2023-01-22T13:29:27.152Z,4.57
2023-01-22T13:32:50.347Z,4.00
2023-01-22T13:36:05.278Z,3.95
2023-01-22T13:39:17.301Z,4.43
2023-01-22T13:42:29.298Z,3.90
2023-01-22T13:45:53.355Z,3.93
2023-01-22T13:49:06.275Z,3.80
2023-01-22T13:52:30.346Z,3.57
2023-01-22T13:55:42.280Z,4.20
2023-01-22T13:59:06.328Z,3.90
2023-01-22T14:02:18.351Z,3.55
2023-01-22T14:05:44.389Z,3.73
2023-01-22T14:08:56.402Z,3.90
2023-01-22T14:12:20.375Z,3.77
2023-01-22T14:15:38.349Z,4.10
2023-01-22T14:19:02.435Z,4.87
2023-01-22T14:22:16.381Z,4.27
2023-01-22T14:25:31.589Z,3.90
2023-01-22T14:28:44.422Z,4.07
2023-01-22T14:31:56.461Z,3.97
2023-01-22T14:34:56.426Z,3.43
2023-01-22T14:38:23.492Z,4.10
2023-01-22T14:41:23.476Z,4.10
2023-01-22T14:44:36.513Z,3.80
2023-01-22T14:47:48.473Z,4.30
2023-01-22T14:51:15.614Z,4.03
2023-01-22T14:54:29.488Z,3.95
2023-01-22T14:57:41.570Z,3.95
2023-01-22T15:00:53.602Z,4.77
2023-01-22T15:04:05.549Z,3.50
2023-01-22T15:07:05.511Z,3.90
2023-01-22T15:10:36.612Z,4.73
2023-01-22T15:13:36.537Z,4.57
2023-01-22T15:16:48.790Z,3.70
2023-01-22T15:19:48.622Z,4.15
2023-01-22T15:23:12.622Z,4.05
2023-01-22T15:26:26.595Z,4.40
2023-01-22T15:29:39.648Z,3.63
2023-01-22T15:32:39.684Z,4.40
2023-01-22T15:35:51.747Z,3.87
2023-01-22T15:38:51.673Z,3.75
2023-01-22T15:42:17.676Z,4.53
2023-01-22T15:45:30.736Z,3.60
2023-01-22T15:48:42.740Z,3.97
2023-01-22T15:51:42.643Z,4.00
2023-01-22T15:54:54.727Z,3.80
2023-01-22T15:58:07.680Z,4.57
2023-01-22T16:01:35.893Z,4.15
2023-01-22T16:04:47.762Z,4.00
2023-01-22T16:07:51.951Z,3.90
2023-01-22T16:11:00.749Z,4.53
2023-01-22T16:14:13.768Z,4.13
2023-01-22T16:17:29.742Z,4.07
2023-01-22T16:20:30.881Z,4.43
2023-01-22T16:24:01.800Z,4.20
2023-01-22T16:27:01.783Z,4.40
2023-01-22T16:30:27.880Z,4.40
2023-01-22T16:33:42.850Z,3.37
2023-01-22T16:37:07.914Z,4.30
2023-01-22T16:40:07.897Z,4.23
2023-01-22T16:43:20.829Z,4.00
2023-01-22T16:46:34.917Z,3.83
2023-01-22T16:49:46.843Z,3.97
2023-01-22T16:52:49.875Z,4.20
2023-01-22T16:56:01.911Z,3.50
2023-01-22T16:59:01.920Z,3.85
2023-01-22T17:02:26.961Z,3.60
2023-01-22T17:05:26.871Z,4.40
2023-01-22T17:08:50.904Z,4.33
2023-01-22T17:11:50.994Z,3.90
2023-01-22T17:15:04.044Z,3.67
2023-01-22T17:18:17.998Z,3.45
2023-01-22T17:21:41.933Z,4.07
2023-01-22T17:24:53.959Z,3.70
2023-01-22T17:28:06.029Z,3.90
2023-01-22T17:31:09.129Z,3.90
2023-01-22T17:34:36.001Z,4.13
2023-01-22T17:37:36.014Z,3.70
2023-01-22T17:40:51.077Z,4.47
2023-01-22T17:44:04.080Z,4.50
2023-01-22T17:47:16.057Z,4.23
2023-01-22T17:50:30.085Z,4.20
2023-01-22T17:53:42.121Z,3.63
2023-01-22T17:56:55.037Z,4.43
2023-01-22T18:00:08.074Z,4.65
2023-01-22T18:03:23.086Z,3.80
2023-01-22T18:06:37.051Z,4.07
2023-01-22T18:09:49.135Z,4.00
2023-01-22T18:12:58.104Z,4.03
2023-01-22T18:16:13.207Z,4.37
2023-01-22T18:19:25.244Z,3.70
2023-01-22T18:22:51.165Z,3.90
2023-01-22T18:26:07.165Z,3.90
2023-01-22T18:29:31.128Z,3.80
2023-01-22T18:32:31.250Z,4.37
2023-01-22T18:35:43.235Z,4.07
2023-01-22T18:39:00.251Z,3.90
2023-01-22T18:42:12.198Z,3.20
2023-01-22T18:45:12.261Z,3.60
2023-01-22T18:48:36.388Z,3.60
2023-01-22T18:51:48.235Z,3.70
2023-01-22T18:55:15.282Z,4.00
2023-01-22T18:58:16.279Z,3.85
2023-01-22T19:01:40.354Z,3.63
2023-01-22T19:04:40.305Z,4.00
2023-01-22T19:07:52.260Z,4.00
2023-01-22T19:11:05.348Z,4.30
2023-01-22T19:14:29.332Z,3.90
2023-01-22T19:17:29.323Z,3.90
2023-01-22T19:20:41.371Z,3.95
2023-01-22T19:23:41.387Z,4.10
2023-01-22T19:27:07.355Z,3.70
2023-01-22T19:30:07.357Z,4.50
2023-01-22T19:33:20.343Z,4.70
2023-01-22T19:36:21.344Z,4.40
2023-01-22T19:39:36.426Z,4.65
2023-01-22T19:42:50.450Z,4.60
2023-01-22T19:46:02.380Z,4.23
2023-01-22T19:49:02.448Z,3.80
2023-01-22T19:52:14.418Z,3.77
2023-01-22T19:55:14.460Z,4.30
2023-01-22T19:58:41.490Z,3.75
2023-01-22T20:01:53.516Z,4.20
2023-01-22T20:05:05.509Z,4.10
2023-01-22T20:08:20.502Z,3.97
2023-01-22T20:11:32.465Z,4.67
2023-01-22T20:14:46.484Z,3.57
2023-01-22T20:17:58.471Z,4.30
2023-01-22T20:21:16.600Z,4.47
2023-01-22T20:24:28.660Z,3.87
2023-01-22T20:27:31.530Z,4.50
2023-01-22T20:30:56.773Z,4.30
2023-01-22T20:34:08.599Z,4.03
2023-01-22T20:37:20.532Z,5.00
2023-01-22T20:40:33.614Z,3.90
2023-01-22T20:43:45.541Z,4.60
2023-01-22T20:47:01.635Z,4.07
2023-01-22T20:50:13.667Z,4.20
2023-01-22T20:53:13.652Z,3.80
2023-01-22T20:56:37.643Z,4.17
2023-01-22T20:59:37.698Z,5.20
2023-01-22T21:03:03.630Z,4.40
2023-01-22T21:06:03.596Z,4.63
2023-01-22T21:09:27.635Z,4.33
2023-01-22T21:12:27.683Z,4.07
2023-01-22T21:15:40.632Z,4.40
2023-01-22T21:18:54.682Z,4.17
2023-01-22T21:22:06.726Z,4.80
2023-01-22T21:25:06.777Z,4.23
2023-01-22T21:28:30.770Z,3.73
2023-01-22T21:31:42.802Z,3.87
2023-01-22T21:35:07.764Z,4.93
2023-01-22T21:38:07.755Z,4.17
2023-01-22T21:41:31.750Z,5.07
2023-01-22T21:44:49.376Z,3.90
2023-01-22T21:48:01.761Z,4.33
2023-01-22T21:51:15.883Z,4.27
2023-01-22T21:54:39.815Z,3.93
2023-01-22T21:57:39.806Z,4.03
2023-01-22T22:00:52.908Z,3.63
2023-01-22T22:04:07.886Z,3.73
2023-01-22T22:07:21.815Z,4.40
2023-01-22T22:10:33.817Z,5.40
2023-01-22T22:13:33.922Z,4.27
2023-01-22T22:16:58.864Z,4.00
2023-01-22T22:19:58.856Z,4.13
2023-01-22T22:23:24.882Z,4.43
2023-01-22T22:26:27.922Z,4.07
2023-01-22T22:29:39.933Z,4.17
2023-01-22T22:32:39.888Z,4.33
2023-01-22T22:36:08.929Z,4.03
2023-01-22T22:39:25.972Z,4.30
2023-01-22T22:42:39.022Z,4.37
2023-01-22T22:45:39.022Z,4.13
2023-01-22T22:49:02.916Z,3.90
2023-01-22T22:52:02.993Z,4.00
2023-01-22T22:55:28.968Z,4.37
2023-01-22T22:58:29.078Z,3.67
2023-01-22T23:01:54.140Z,3.87
2023-01-22T23:05:06.070Z,3.93
2023-01-22T23:08:30.034Z,4.17
2023-01-22T23:11:44.051Z,4.13
2023-01-22T23:14:59.090Z,4.20
2023-01-22T23:17:59.110Z,3.70
2023-01-22T23:21:23.084Z,3.83
2023-01-22T23:24:35.101Z,4.10
2023-01-22T23:28:01.128Z,4.00
2023-01-22T23:31:02.257Z,3.93
2023-01-22T23:34:29.049Z,4.40
2023-01-22T23:37:32.198Z,3.83
2023-01-22T23:40:46.072Z,4.23
2023-01-22T23:44:00.133Z,3.40
2023-01-22T23:47:12.168Z,4.07
2023-01-22T23:50:12.234Z,4.23
2023-01-22T23:53:37.190Z,4.20
2023-01-22T23:56:49.152Z,4.07
